Bitola, Macedonia
Current Conditions -  °F | °C
As of 4:30 AM on Sunday 23 Nov 2014 (Local Time) from LWSK Reporting Station
Clear Clear  
Wind Chill: 28°   Ceiling: Unl
Heat Index: 28°   Visibility: 5mi
Dew Point: 28°   Wind: 0mph
Humidity: 100%   Direction: NA
Pressure: 30.36"   Gusts: NA
Location:  41.04°N, 21.34°E
Report Text: LWSK 230230Z 00000KT 8000 NSC M02/M02 Q1028 NOSIG
Loading
Personal Weather Stations






























Interactive Weather Map New forecast layout! Learn more

10-Day Weather Forecast

Advertisements
Track Severe Weather on mobile